Time;durP1;ratioP1;P1;durP2;ratioP2;P2;SDS_P1;SDS_P2;PMS_P1;PMS_P2;Temp;Humidity;BMP_temperature;BMP_pressure;BME280_temperature;BME280_humidity;BME280_pressure;Samples;Min_cycle;Max_cycle;Signal;HPM_P1;HPM_P2
2022/04/30 00:01:20;;;;;;;91.78;9.48;;;3.10;99.90;;;;;;5052236;28;20404;-81
2022/04/30 00:03:47;;;;;;;341.93;48.67;;;3.00;99.90;;;;;;5052875;28;20784;-84
2022/04/30 00:06:15;;;;;;;135.68;16.80;;;3.10;99.90;;;;;;5053915;28;20479;-80
2022/04/30 00:08:42;;;;;;;707.10;100.28;;;3.00;99.90;;;;;;5052181;28;20434;-80
2022/04/30 00:11:10;;;;;;;182.10;19.92;;;3.00;99.90;;;;;;5051742;28;20407;-80
2022/04/30 00:13:38;;;;;;;97.68;11.63;;;3.10;99.90;;;;;;5038046;28;20514;-82
2022/04/30 00:16:06;;;;;;;285.17;39.08;;;3.00;99.90;;;;;;5049469;28;20448;-82
2022/04/30 00:18:33;;;;;;;392.58;59.90;;;2.90;99.90;;;;;;5047045;28;20430;-82
2022/04/30 00:21:01;;;;;;;407.02;58.70;;;2.90;99.90;;;;;;5038095;28;20923;-82
2022/04/30 00:23:28;;;;;;;2.10;0.80;;;2.90;99.90;;;;;;5037153;28;20405;-83
2022/04/30 00:25:56;;;;;;;322.35;39.90;;;2.80;99.90;;;;;;5033948;28;20390;-80
2022/04/30 00:28:25;;;;;;;746.60;107.65;;;2.80;99.90;;;;;;5040384;28;20396;-81
2022/04/30 00:30:54;;;;;;;510.45;72.20;;;2.80;99.90;;;;;;5037613;28;20409;-83
2022/04/30 00:33:23;;;;;;;574.23;81.70;;;2.80;99.90;;;;;;5033756;28;20744;-83
2022/04/30 00:35:50;;;;;;;586.15;81.88;;;2.80;99.90;;;;;;5048920;28;20488;-83
2022/04/30 00:38:18;;;;;;;414.40;63.78;;;2.80;99.90;;;;;;5048870;28;20397;-83
2022/04/30 00:40:45;;;;;;;425.17;56.08;;;2.80;99.90;;;;;;5032069;28;20464;-83
2022/04/30 00:43:13;;;;;;;864.90;126.35;;;2.80;99.90;;;;;;5052152;28;20395;-83
2022/04/30 00:45:46;;;;;;;461.38;67.57;;;2.80;99.90;;;;;;5035447;28;20396;-83
2022/04/30 00:48:14;;;;;;;355.10;44.40;;;2.80;99.90;;;;;;5032183;28;20393;-82
2022/04/30 00:50:42;;;;;;;434.52;50.60;;;2.70;99.90;;;;;;5032374;28;20408;-83
2022/04/30 00:53:13;;;;;;;694.05;107.32;;;2.70;99.90;;;;;;5049848;28;20388;-83
2022/04/30 00:55:44;;;;;;;385.67;58.45;;;2.70;99.90;;;;;;5032134;28;20900;-83
2022/04/30 00:58:18;;;;;;;242.63;29.27;;;2.60;99.90;;;;;;5032148;28;20428;-83
2022/04/30 01:00:49;;;;;;;723.65;98.13;;;2.60;99.90;;;;;;5031713;28;20405;-83
2022/04/30 01:03:42;;;;;;;740.45;100.95;;;2.70;99.90;;;;;;5026841;28;20476;-83
2022/04/30 01:06:12;;;;;;;21.40;2.78;;;2.60;99.90;;;;;;5041778;28;20396;-83
2022/04/30 01:08:40;;;;;;;569.05;72.10;;;2.50;99.90;;;;;;5031546;28;20475;-83
2022/04/30 01:11:08;;;;;;;120.10;10.75;;;2.50;99.90;;;;;;5032482;28;20424;-83
2022/04/30 01:13:36;;;;;;;357.53;68.10;;;2.50;99.90;;;;;;5033014;28;20941;-83
2022/04/30 01:16:07;;;;;;;167.93;23.30;;;2.40;99.90;;;;;;5033071;28;20390;-84
2022/04/30 01:18:36;;;;;;;58.93;6.10;;;2.50;99.90;;;;;;5033041;28;20464;-83
2022/04/30 01:21:10;;;;;;;382.50;54.15;;;2.40;99.90;;;;;;5032778;28;20813;-83
2022/04/30 01:23:42;;;;;;;396.52;46.88;;;2.40;99.90;;;;;;5050178;28;20715;-82
2022/04/30 01:26:10;;;;;;;380.05;56.72;;;2.50;99.90;;;;;;5031814;28;20910;-83
2022/04/30 01:28:41;;;;;;;316.88;47.58;;;2.40;99.90;;;;;;5031418;28;20440;-83
2022/04/30 01:37:22;;;;;;;386.27;50.60;;;2.30;99.90;;;;;;5035483;28;20405;-83
2022/04/30 01:39:37;;;;;;;325.85;36.33;;;2.40;99.90;;;;;;5050987;28;20388;-83
2022/04/30 01:42:12;;;;;;;412.10;52.03;;;2.30;99.90;;;;;;5067466;28;20924;-82
2022/04/30 01:44:44;;;;;;;453.73;58.97;;;2.30;99.90;;;;;;5050968;28;20900;-83
2022/04/30 01:47:16;;;;;;;657.28;92.72;;;2.40;99.90;;;;;;5067558;28;20403;-83
2022/04/30 01:49:44;;;;;;;643.17;92.68;;;2.30;99.90;;;;;;5050816;28;20474;-82
2022/04/30 01:52:16;;;;;;;328.35;43.03;;;2.40;99.90;;;;;;5050784;28;20390;-83
2022/04/30 01:54:44;;;;;;;194.35;27.42;;;2.40;99.90;;;;;;5049804;28;20472;-84
2022/04/30 01:57:15;;;;;;;362.23;51.78;;;2.30;99.90;;;;;;5031669;28;20385;-83
2022/04/30 01:59:43;;;;;;;254.30;31.15;;;2.20;99.90;;;;;;5031094;28;20483;-83
2022/04/30 02:02:12;;;;;;;565.85;88.32;;;2.20;99.90;;;;;;5030743;28;20887;-82
2022/04/30 02:04:40;;;;;;;572.67;79.38;;;2.20;99.90;;;;;;5047482;28;20404;-83
2022/04/30 02:07:10;;;;;;;485.10;65.20;;;2.10;99.90;;;;;;5047369;28;20386;-84
2022/04/30 02:09:38;;;;;;;629.75;93.72;;;2.10;99.90;;;;;;5014324;28;20400;-83
2022/04/30 02:12:06;;;;;;;245.15;35.35;;;2.10;99.90;;;;;;5031989;28;20393;-84
2022/04/30 02:14:36;;;;;;;372.52;47.92;;;2.00;99.90;;;;;;5030630;28;20394;-83
2022/04/30 02:17:06;;;;;;;467.50;64.53;;;2.00;99.90;;;;;;5030715;28;20400;-83
2022/04/30 02:22:23;;;;;;;216.13;32.15;;;2.00;99.90;;;;;;5020529;28;20405;-83
2022/04/30 02:24:51;;;;;;;242.68;37.60;;;2.00;99.90;;;;;;5047100;28;20389;-81
2022/04/30 02:27:19;;;;;;;663.20;102.20;;;1.90;99.90;;;;;;5031875;28;20397;-83
2022/04/30 02:29:47;;;;;;;371.08;68.47;;;1.90;99.90;;;;;;5031612;28;20389;-83
2022/04/30 02:32:14;;;;;;;210.00;34.27;;;1.80;99.90;;;;;;5047026;28;20489;-81
2022/04/30 02:34:42;;;;;;;574.13;88.40;;;1.70;99.90;;;;;;5046749;28;20381;-81
2022/04/30 02:37:14;;;;;;;766.30;111.03;;;1.70;99.90;;;;;;5031520;28;20748;-82
2022/04/30 02:39:46;;;;;;;135.23;24.40;;;1.60;99.90;;;;;;5046971;28;20868;-81
2022/04/30 02:42:14;;;;;;;370.35;67.68;;;1.60;99.90;;;;;;5014002;28;20826;-83
2022/04/30 02:44:41;;;;;;;613.27;95.27;;;1.60;99.90;;;;;;5031633;28;20882;-81
2022/04/30 02:47:09;;;;;;;332.38;57.80;;;1.60;99.90;;;;;;5030321;28;20386;-84
2022/04/30 02:49:38;;;;;;;171.00;30.20;;;1.60;99.90;;;;;;5039309;28;20433;-83
2022/04/30 02:52:05;;;;;;;107.80;14.48;;;1.60;99.90;;;;;;5049835;28;20400;-81
2022/04/30 02:54:34;;;;;;;289.10;35.47;;;1.60;99.90;;;;;;5049001;28;20388;-80
2022/04/30 02:57:02;;;;;;;551.65;108.05;;;1.60;99.90;;;;;;5029943;28;20393;-81
2022/04/30 03:02:29;;;;;;;117.70;19.60;;;1.50;99.90;;;;;;5046002;28;20399;-82
2022/04/30 03:04:56;;;;;;;302.27;44.77;;;1.60;99.90;;;;;;5046807;28;20496;-84
2022/04/30 03:07:24;;;;;;;345.25;40.17;;;1.60;99.90;;;;;;5045932;28;20471;-83
2022/04/30 03:09:52;;;;;;;346.88;48.65;;;1.60;99.90;;;;;;5033954;28;20397;-83
2022/04/30 03:12:21;;;;;;;247.73;33.25;;;1.60;99.90;;;;;;5039830;28;20387;-83
2022/04/30 03:14:49;;;;;;;164.68;24.73;;;1.60;99.90;;;;;;5052120;28;20396;-83
2022/04/30 03:22:49;;;;;;;342.20;46.10;;;1.60;99.90;;;;;;5054468;28;20397;-82
2022/04/30 03:25:17;;;;;;;668.03;104.30;;;1.60;99.90;;;;;;5042947;28;20783;-82
2022/04/30 03:27:44;;;;;;;56.65;5.25;;;1.50;99.90;;;;;;5035114;28;20396;-84
2022/04/30 03:30:13;;;;;;;273.00;31.85;;;1.60;99.90;;;;;;5035053;28;20381;-82
2022/04/30 03:32:42;;;;;;;327.05;44.47;;;1.60;99.90;;;;;;5034921;28;20391;-82
2022/04/30 03:35:10;;;;;;;612.00;92.90;;;1.60;99.90;;;;;;5035131;28;20846;-83
2022/04/30 03:37:38;;;;;;;379.45;50.40;;;1.60;99.90;;;;;;5039552;28;20755;-83
2022/04/30 03:40:06;;;;;;;431.50;63.97;;;1.70;99.90;;;;;;5063865;28;20387;-83
2022/04/30 03:42:34;;;;;;;504.00;81.47;;;1.60;99.90;;;;;;5037370;28;20389;-83
2022/04/30 03:45:05;;;;;;;949.67;161.60;;;1.60;99.90;;;;;;5054262;28;20379;-82
2022/04/30 03:47:32;;;;;;;547.25;78.30;;;1.60;99.90;;;;;;5054247;28;20475;-83
2022/04/30 03:50:00;;;;;;;619.33;90.60;;;1.60;99.90;;;;;;5053198;28;20395;-83
2022/04/30 03:52:31;;;;;;;557.57;86.43;;;1.60;99.90;;;;;;5037998;28;20846;-84
2022/04/30 03:54:59;;;;;;;407.85;49.03;;;1.60;99.90;;;;;;5038602;28;20737;-83
2022/04/30 03:57:28;;;;;;;77.70;8.55;;;1.70;99.90;;;;;;5053087;28;20406;-82
2022/04/30 03:59:56;;;;;;;470.50;61.33;;;1.60;99.90;;;;;;5049639;28;20477;-83
2022/04/30 04:02:23;;;;;;;144.23;23.13;;;1.60;99.90;;;;;;5046781;28;20400;-81
2022/04/30 04:04:52;;;;;;;75.93;9.27;;;1.60;99.90;;;;;;5052562;28;20399;-82
2022/04/30 04:07:20;;;;;;;239.15;27.30;;;1.60;99.90;;;;;;5052820;28;20391;-83
2022/04/30 04:09:48;;;;;;;269.10;32.65;;;1.60;99.90;;;;;;5053000;28;20488;-83
2022/04/30 04:12:15;;;;;;;99.70;11.90;;;1.70;99.90;;;;;;5036114;28;20443;-82
2022/04/30 04:17:37;;;;;;;166.70;29.92;;;1.60;99.90;;;;;;5054011;28;20457;-83
2022/04/30 04:20:07;;;;;;;230.70;37.50;;;1.60;99.90;;;;;;5052056;28;20932;-81
2022/04/30 04:22:36;;;;;;;34.50;3.70;;;1.50;99.90;;;;;;5052678;28;20390;-81
2022/04/30 04:27:55;;;;;;;177.05;31.02;;;1.40;99.90;;;;;;5053383;28;20384;-82
2022/04/30 04:30:23;;;;;;;253.18;41.10;;;1.40;99.90;;;;;;5049092;28;20537;-84
2022/04/30 04:32:52;;;;;;;2.17;0.67;;;1.40;99.90;;;;;;5033824;28;20417;-83
2022/04/30 04:35:19;;;;;;;39.13;3.45;;;1.40;99.90;;;;;;5032618;28;20868;-85
2022/04/30 04:37:47;;;;;;;128.63;20.30;;;1.50;99.90;;;;;;5049053;28;20476;-83
2022/04/30 04:40:16;;;;;;;115.95;17.83;;;1.50;99.90;;;;;;5032583;28;20903;-83
2022/04/30 04:42:45;;;;;;;293.55;53.85;;;1.50;99.90;;;;;;5035514;28;20386;-83
2022/04/30 04:45:14;;;;;;;287.33;53.20;;;1.50;99.90;;;;;;5047406;28;20386;-82
2022/04/30 04:47:45;;;;;;;299.13;56.72;;;1.50;99.90;;;;;;5042710;28;20384;-82
2022/04/30 04:50:13;;;;;;;404.20;70.90;;;1.50;99.90;;;;;;5039175;28;20385;-82
2022/04/30 04:52:42;;;;;;;298.20;47.90;;;1.60;99.90;;;;;;5031994;28;20900;-81
2022/04/30 04:55:10;;;;;;;521.78;77.07;;;1.60;99.90;;;;;;5052118;28;20423;-84
2022/04/30 04:57:38;;;;;;;377.27;73.95;;;1.60;99.90;;;;;;5048849;28;20386;-84
2022/04/30 05:00:10;;;;;;;564.27;91.80;;;1.60;99.90;;;;;;5033261;28;20428;-83
2022/04/30 05:02:38;;;;;;;91.72;13.80;;;1.70;99.90;;;;;;5033043;28;20405;-82
2022/04/30 05:05:06;;;;;;;242.68;40.30;;;1.70;99.90;;;;;;5048472;28;20456;-83
2022/04/30 05:07:34;;;;;;;393.42;53.80;;;1.80;99.90;;;;;;5031973;28;20496;-83
2022/04/30 05:10:02;;;;;;;434.77;71.47;;;1.80;99.90;;;;;;5031892;28;20396;-83
2022/04/30 05:12:30;;;;;;;5.32;1.08;;;1.90;99.90;;;;;;5048570;28;20485;-83
2022/04/30 05:14:57;;;;;;;81.32;13.13;;;1.90;99.90;;;;;;5035712;28;20399;-83
2022/04/30 05:17:25;;;;;;;561.00;77.65;;;1.90;99.90;;;;;;5067979;28;20893;-83
2022/04/30 05:19:52;;;;;;;372.33;57.88;;;2.00;99.90;;;;;;5051387;28;20387;-82
2022/04/30 05:22:20;;;;;;;167.35;30.60;;;2.00;99.90;;;;;;5052676;28;20486;-82
2022/04/30 05:24:47;;;;;;;524.33;87.53;;;2.00;99.90;;;;;;5067331;28;20419;-82
2022/04/30 05:27:15;;;;;;;22.30;2.22;;;2.00;99.90;;;;;;5051406;28;20761;-81
2022/04/30 05:29:43;;;;;;;257.83;32.03;;;2.00;99.90;;;;;;5051076;28;20392;-83
2022/04/30 05:32:11;;;;;;;320.33;65.20;;;2.10;99.90;;;;;;5050321;28;20973;-83
2022/04/30 05:34:39;;;;;;;240.80;40.28;;;2.10;99.90;;;;;;5050872;28;20450;-83
2022/04/30 05:37:07;;;;;;;689.65;106.97;;;2.10;99.90;;;;;;5067529;28;20395;-83
2022/04/30 05:39:35;;;;;;;766.45;95.43;;;2.20;99.90;;;;;;5051250;28;20457;-83
2022/04/30 05:42:03;;;;;;;40.63;7.30;;;2.20;99.90;;;;;;5052116;28;20391;-83
2022/04/30 05:44:30;;;;;;;318.15;53.17;;;2.20;99.90;;;;;;5034377;28;20559;-82
2022/04/30 05:46:58;;;;;;;205.70;26.25;;;2.20;99.90;;;;;;5048262;28;20436;-82
2022/04/30 05:49:26;;;;;;;30.80;4.20;;;2.30;99.90;;;;;;5032854;28;20782;-82
2022/04/30 05:51:53;;;;;;;213.73;36.22;;;2.30;99.90;;;;;;5047513;28;20887;-83
2022/04/30 05:54:21;;;;;;;108.28;16.58;;;2.30;99.90;;;;;;5047404;28;20393;-83
2022/04/30 05:56:49;;;;;;;256.38;38.53;;;2.30;99.90;;;;;;5047306;28;20892;-82
2022/04/30 05:59:18;;;;;;;512.27;52.80;;;2.40;99.90;;;;;;5030799;28;20485;-83
2022/04/30 06:01:45;;;;;;;17.52;1.23;;;2.50;99.90;;;;;;5047206;28;20429;-83
2022/04/30 06:04:13;;;;;;;632.83;92.75;;;2.40;99.90;;;;;;5032222;28;20425;-83
2022/04/30 06:06:41;;;;;;;575.03;98.55;;;2.40;99.90;;;;;;5032100;28;20792;-82
2022/04/30 06:09:08;;;;;;;1012.88;95.13;;;2.50;99.90;;;;;;5032013;28;20390;-83
2022/04/30 06:11:36;;;;;;;264.55;36.42;;;2.50;99.90;;;;;;5031832;28;20484;-83
2022/04/30 06:14:03;;;;;;;509.80;75.17;;;2.50;99.90;;;;;;5047111;28;20440;-83
2022/04/30 06:16:31;;;;;;;312.08;46.80;;;2.60;99.90;;;;;;5031840;28;20394;-83
2022/04/30 06:18:58;;;;;;;410.50;80.63;;;2.60;99.90;;;;;;5047036;28;20477;-82
2022/04/30 06:21:43;;;;;;;209.10;39.30;;;2.60;99.90;;;;;;5030864;28;20937;-83
2022/04/30 06:24:10;;;;;;;814.73;113.53;;;2.60;99.90;;;;;;5030665;28;20475;-84
2022/04/30 06:26:38;;;;;;;403.27;70.95;;;2.60;99.90;;;;;;5030284;28;20799;-84
2022/04/30 06:29:06;;;;;;;520.50;98.03;;;2.70;99.90;;;;;;5060647;28;20912;-83
2022/04/30 06:31:33;;;;;;;637.72;117.45;;;2.70;99.90;;;;;;5048349;28;20746;-83
2022/04/30 06:34:01;;;;;;;224.85;38.60;;;2.80;99.90;;;;;;5037394;28;20409;-83
2022/04/30 06:36:29;;;;;;;86.63;17.25;;;2.80;99.90;;;;;;5014432;28;20897;-84
2022/04/30 06:38:57;;;;;;;188.48;29.00;;;2.80;99.90;;;;;;5030408;28;20386;-84
2022/04/30 06:41:26;;;;;;;154.50;20.50;;;2.90;99.90;;;;;;5035897;28;20408;-83
2022/04/30 06:43:54;;;;;;;268.60;54.35;;;3.00;99.90;;;;;;5051798;28;20444;-83
2022/04/30 06:46:21;;;;;;;202.20;29.13;;;3.00;99.90;;;;;;5031477;28;20397;-83
2022/04/30 06:48:49;;;;;;;519.97;92.88;;;2.90;99.90;;;;;;5031529;28;20388;-83
2022/04/30 06:51:16;;;;;;;182.98;44.17;;;2.90;99.90;;;;;;5046387;28;20401;-81
2022/04/30 06:59:17;;;;;;;452.85;80.03;;;3.10;99.90;;;;;;5035678;28;20451;-83
2022/04/30 07:02:00;;;;;;;186.68;26.95;;;3.20;99.90;;;;;;5029882;28;20459;-83
2022/04/30 07:04:39;;;;;;;118.78;17.50;;;3.20;99.90;;;;;;5030269;28;20393;-83
2022/04/30 07:07:07;;;;;;;120.30;23.48;;;3.40;99.90;;;;;;5054549;28;20451;-82
2022/04/30 07:09:35;;;;;;;130.20;24.30;;;3.40;99.90;;;;;;5035251;28;20655;-83
2022/04/30 07:12:06;;;;;;;271.33;30.73;;;3.40;99.90;;;;;;5047522;28;20411;-83
2022/04/30 07:14:36;;;;;;;696.20;130.13;;;3.40;99.90;;;;;;5045077;28;20411;-83
2022/04/30 07:17:05;;;;;;;126.10;19.00;;;3.50;99.90;;;;;;5029881;28;20444;-83
2022/04/30 07:19:34;;;;;;;547.65;87.57;;;3.60;99.90;;;;;;5050749;28;20467;-83
2022/04/30 07:22:02;;;;;;;216.40;45.80;;;3.60;99.90;;;;;;5030161;28;20463;-83
2022/04/30 07:24:33;;;;;;;483.73;61.15;;;3.70;99.90;;;;;;5049280;28;20388;-83
2022/04/30 07:27:04;;;;;;;534.60;65.30;;;3.70;99.90;;;;;;5045276;28;20755;-83
2022/04/30 07:29:32;;;;;;;613.08;111.85;;;3.70;99.90;;;;;;5029687;28;20497;-83
2022/04/30 07:32:00;;;;;;;114.72;22.70;;;3.80;99.90;;;;;;5029675;28;20405;-81
2022/04/30 07:34:28;;;;;;;158.95;24.30;;;3.80;99.90;;;;;;5029738;28;20390;-84
2022/04/30 07:36:56;;;;;;;76.00;10.02;;;3.80;99.90;;;;;;5046394;28;20393;-83
2022/04/30 07:39:24;;;;;;;182.95;30.73;;;4.00;99.90;;;;;;5030927;28;20389;-84
2022/04/30 07:41:55;;;;;;;121.50;17.58;;;4.10;99.90;;;;;;5030978;28;20765;-85
2022/04/30 07:44:22;;;;;;;720.15;106.95;;;4.10;99.90;;;;;;5029658;28;20401;-83
2022/04/30 07:46:50;;;;;;;200.30;27.38;;;4.10;99.90;;;;;;5030924;28;20439;-84
2022/04/30 07:49:17;;;;;;;319.77;55.77;;;4.00;99.90;;;;;;5046116;28;20400;-82
2022/04/30 07:51:55;;;;;;;68.85;12.98;;;4.10;99.90;;;;;;5030668;28;20401;-81
2022/04/30 07:54:25;;;;;;;293.20;34.00;;;4.30;99.90;;;;;;5035673;28;20401;-83
2022/04/30 07:56:55;;;;;;;600.53;69.20;;;4.40;99.90;;;;;;5037422;28;20745;-81
2022/04/30 07:59:23;;;;;;;260.30;30.75;;;4.50;99.90;;;;;;5032716;28;20376;-84
2022/04/30 08:01:51;;;;;;;618.88;97.13;;;4.40;99.90;;;;;;5049828;28;20905;-81
2022/04/30 08:04:20;;;;;;;564.90;77.50;;;4.40;99.90;;;;;;5050230;28;20951;-83
2022/04/30 08:06:48;;;;;;;319.88;43.85;;;4.40;99.90;;;;;;5040783;28;20486;-81
2022/04/30 08:09:15;;;;;;;66.63;7.20;;;4.40;99.90;;;;;;5052386;28;20437;-82
2022/04/30 08:11:43;;;;;;;580.78;68.65;;;4.40;99.90;;;;;;5034922;28;20817;-83
2022/04/30 08:14:11;;;;;;;1343.10;139.75;;;4.60;99.90;;;;;;5034219;28;20423;-82
2022/04/30 08:16:38;;;;;;;784.10;98.97;;;4.90;99.90;;;;;;5035119;28;20888;-83
2022/04/30 08:19:06;;;;;;;362.75;53.97;;;4.90;99.90;;;;;;5035740;28;20455;-81
2022/04/30 08:21:33;;;;;;;307.38;58.20;;;4.80;99.90;;;;;;5033097;28;20385;-83
2022/04/30 08:24:01;;;;;;;928.50;117.18;;;4.70;99.90;;;;;;5045534;28;20888;-83
2022/04/30 08:26:28;;;;;;;228.07;32.40;;;4.70;99.90;;;;;;5034858;28;20506;-83
2022/04/30 08:28:55;;;;;;;97.28;13.32;;;4.70;99.90;;;;;;5039568;28;20444;-83
2022/04/30 08:31:23;;;;;;;628.65;103.13;;;4.80;99.90;;;;;;5033832;28;20440;-83
2022/04/30 08:33:51;;;;;;;185.18;38.70;;;4.80;99.90;;;;;;5033795;28;20484;-83
2022/04/30 08:36:19;;;;;;;85.63;19.00;;;4.90;99.90;;;;;;5046795;28;20865;-83
2022/04/30 08:38:54;;;;;;;86.53;11.77;;;5.00;99.90;;;;;;5064734;28;20408;-81
2022/04/30 08:41:21;;;;;;;598.92;104.65;;;5.00;99.90;;;;;;5033714;28;20420;-82
2022/04/30 08:43:49;;;;;;;295.88;55.40;;;5.20;99.90;;;;;;5033613;28;20389;-82
2022/04/30 08:46:20;;;;;;;398.83;49.17;;;5.20;99.90;;;;;;5032471;28;20778;-82
2022/04/30 08:48:48;;;;;;;403.00;45.83;;;5.20;99.90;;;;;;5037070;28;20425;-83
2022/04/30 08:51:16;;;;;;;385.92;56.10;;;5.40;99.90;;;;;;5031312;28;20386;-82
2022/04/30 08:53:44;;;;;;;191.43;44.67;;;5.40;99.90;;;;;;5048304;28;20459;-82
2022/04/30 08:56:11;;;;;;;248.13;38.23;;;5.40;99.90;;;;;;5033393;28;20942;-82
2022/04/30 08:58:40;;;;;;;582.63;98.23;;;5.50;99.90;;;;;;5037359;28;20397;-82
2022/04/30 09:01:09;;;;;;;356.10;53.45;;;5.70;99.90;;;;;;5031885;28;20389;-82
2022/04/30 09:03:38;;;;;;;284.25;36.65;;;5.80;99.90;;;;;;5050971;28;20392;-82
2022/04/30 09:06:06;;;;;;;148.68;27.40;;;5.80;99.90;;;;;;5050650;28;20818;-81
2022/04/30 09:08:35;;;;;;;343.77;62.65;;;5.80;99.90;;;;;;5054281;28;20451;-81
2022/04/30 09:11:06;;;;;;;415.02;69.70;;;5.60;99.90;;;;;;5037949;28;20453;-83
2022/04/30 09:13:46;;;;;;;1.80;0.57;;;5.60;99.90;;;;;;5048716;28;20822;-83
2022/04/30 09:16:19;;;;;;;606.07;84.20;;;5.70;99.90;;;;;;5038073;28;20392;-81
2022/04/30 09:18:49;;;;;;;59.40;7.60;;;5.80;99.90;;;;;;5044159;28;20383;-81
2022/04/30 09:21:17;;;;;;;121.50;15.43;;;5.80;99.90;;;;;;5048007;28;20938;-81
2022/04/30 09:23:45;;;;;;;29.58;4.60;;;6.00;99.90;;;;;;5031752;28;20389;-80
2022/04/30 09:26:13;;;;;;;138.93;16.53;;;5.90;99.90;;;;;;5046066;28;20491;-81
2022/04/30 09:28:43;;;;;;;587.15;60.00;;;6.00;99.90;;;;;;5052147;28;20395;-80
2022/04/30 09:31:13;;;;;;;784.65;91.20;;;6.20;99.90;;;;;;5051312;28;20992;-80
2022/04/30 09:33:50;;;;;;;225.60;29.05;;;6.20;99.90;;;;;;5052231;28;20487;-80
2022/04/30 09:39:15;;;;;;;208.30;29.83;;;6.30;99.90;;;;;;5032506;28;20424;-81
2022/04/30 09:41:44;;;;;;;1449.68;87.40;;;6.20;99.90;;;;;;5032464;28;20547;-82
2022/04/30 09:44:16;;;;;;;1182.83;121.97;;;6.40;99.90;;;;;;5047616;28;20539;-81
2022/04/30 09:46:44;;;;;;;1131.13;97.43;;;6.60;99.90;;;;;;5034274;28;20475;-81
2022/04/30 09:54:44;;;;;;;281.60;36.58;;;6.50;99.90;;;;;;5051733;28;20388;-80
2022/04/30 09:57:20;;;;;;;216.45;34.53;;;6.60;99.90;;;;;;5051997;28;20438;-80
2022/04/30 09:59:54;;;;;;;59.17;8.35;;;6.80;99.90;;;;;;5050620;28;20441;-81
2022/04/30 10:02:24;;;;;;;297.23;38.53;;;6.70;99.90;;;;;;5050030;28;20400;-80
2022/04/30 10:04:54;;;;;;;448.95;45.80;;;6.80;99.90;;;;;;5050023;28;20387;-82
2022/04/30 10:07:25;;;;;;;257.85;45.20;;;6.80;99.90;;;;;;5049341;28;21581;-80
2022/04/30 10:10:09;;;;;;;29.15;6.35;;;6.80;99.90;;;;;;5066536;28;20396;-81
2022/04/30 10:12:42;;;;;;;95.05;7.70;;;6.70;99.90;;;;;;5033696;28;20475;-82
2022/04/30 10:15:37;;;;;;;444.77;43.13;;;6.90;99.90;;;;;;5031944;28;20473;-81
2022/04/30 10:18:08;;;;;;;139.70;13.85;;;6.90;99.90;;;;;;5043751;28;20878;-82
2022/04/30 10:20:35;;;;;;;11.32;1.60;;;7.10;99.90;;;;;;5034518;28;20472;-79
2022/04/30 10:23:05;;;;;;;602.55;52.28;;;7.10;99.90;;;;;;5031753;28;20906;-81
2022/04/30 10:25:33;;;;;;;462.70;69.28;;;7.20;99.90;;;;;;5031809;28;20879;-82
2022/04/30 10:28:16;;;;;;;889.20;75.88;;;7.30;99.90;;;;;;5033902;28;20511;-82
2022/04/30 10:30:45;;;;;;;578.60;49.53;;;7.50;99.80;;;;;;5047133;28;20396;-82
2022/04/30 10:33:12;;;;;;;1190.28;101.15;;;7.60;98.20;;;;;;5031736;28;20405;-82
2022/04/30 10:35:45;;;;;;;480.77;75.93;;;7.70;99.50;;;;;;5031840;28;20760;-81
2022/04/30 10:38:20;;;;;;;374.33;44.10;;;7.80;99.90;;;;;;5031576;28;20382;-82
2022/04/30 10:40:49;;;;;;;353.70;38.53;;;7.70;99.90;;;;;;5032185;28;20391;-81
2022/04/30 10:43:26;;;;;;;314.60;35.60;;;7.60;97.60;;;;;;5031496;28;20389;-81
2022/04/30 10:45:56;;;;;;;23.23;2.08;;;7.60;98.70;;;;;;5046746;28;20386;-80
2022/04/30 10:48:25;;;;;;;275.45;22.98;;;7.70;99.90;;;;;;5031668;28;20476;-82
2022/04/30 10:51:09;;;;;;;806.88;62.22;;;7.70;99.80;;;;;;5030313;28;20456;-80
2022/04/30 10:53:45;;;;;;;236.13;26.50;;;7.90;98.40;;;;;;5031419;28;20902;-80
2022/04/30 10:56:13;;;;;;;451.83;40.25;;;7.90;99.90;;;;;;5046677;28;20386;-81
2022/04/30 10:58:41;;;;;;;282.60;21.60;;;8.10;99.70;;;;;;5031404;28;20396;-81
2022/04/30 11:01:20;;;;;;;378.70;54.00;;;8.00;99.40;;;;;;5031199;28;20394;-80
2022/04/30 11:03:50;;;;;;;395.00;64.63;;;8.10;98.60;;;;;;5031268;28;20389;-81
2022/04/30 11:06:20;;;;;;;177.40;13.32;;;8.20;99.90;;;;;;5029962;28;20428;-81
2022/04/30 11:09:01;;;;;;;9.00;5.53;;;8.30;99.50;;;;;;5047414;28;20392;-81
2022/04/30 11:11:29;;;;;;;100.15;8.90;;;8.40;99.90;;;;;;5041480;28;20460;-81
2022/04/30 11:14:07;;;;;;;13.32;1.90;;;8.60;99.90;;;;;;5043080;28;20892;-80
2022/04/30 11:16:45;;;;;;;346.10;42.27;;;8.50;99.90;;;;;;5049532;28;20866;-81
2022/04/30 11:19:15;;;;;;;143.55;14.32;;;8.40;97.20;;;;;;5046421;28;20389;-81
2022/04/30 11:21:53;;;;;;;257.52;41.50;;;8.40;97.30;;;;;;5030029;28;20393;-81
2022/04/30 11:24:23;;;;;;;299.02;26.25;;;8.50;99.70;;;;;;5029931;28;20737;-81
2022/04/30 11:26:55;;;;;;;473.38;49.80;;;8.50;96.40;;;;;;5030848;28;20427;-80
2022/04/30 11:29:23;;;;;;;90.93;13.50;;;8.70;97.70;;;;;;5031558;28;20883;-81
2022/04/30 11:31:52;;;;;;;182.20;26.77;;;8.80;97.30;;;;;;5061541;28;20395;-80
2022/04/30 11:34:21;;;;;;;198.77;61.60;;;8.80;96.70;;;;;;5054562;28;20400;-81
2022/04/30 11:36:54;;;;;;;530.20;59.63;;;9.00;99.90;;;;;;5054299;28;20965;-81
2022/04/30 11:39:21;;;;;;;152.03;16.87;;;9.10;97.30;;;;;;5069844;28;20466;-81
2022/04/30 11:41:52;;;;;;;295.80;21.95;;;9.00;96.30;;;;;;5054497;28;20390;-81
2022/04/30 11:44:21;;;;;;;29.05;3.10;;;8.90;95.30;;;;;;5048336;28;20440;-81
2022/04/30 11:46:53;;;;;;;239.45;37.90;;;8.90;97.60;;;;;;5055476;28;20407;-81
2022/04/30 11:49:23;;;;;;;305.05;57.47;;;9.20;99.90;;;;;;5037373;28;20496;-81
2022/04/30 11:52:11;;;;;;;1095.55;84.45;;;9.30;97.10;;;;;;5034760;28;20385;-81
2022/04/30 11:54:39;;;;;;;784.30;58.95;;;9.30;93.80;;;;;;5042097;28;20396;-81
2022/04/30 11:57:08;;;;;;;1393.82;98.65;;;9.40;93.50;;;;;;5034426;28;20938;-80
2022/04/30 11:59:37;;;;;;;1389.90;118.50;;;9.50;93.80;;;;;;5039150;28;20387;-82
2022/04/30 12:02:10;;;;;;;1215.10;84.47;;;9.50;94.40;;;;;;5050933;28;20395;-81
2022/04/30 12:04:41;;;;;;;362.42;42.58;;;9.60;94.10;;;;;;5052360;28;20498;-79
2022/04/30 12:07:11;;;;;;;711.30;66.07;;;9.60;93.50;;;;;;5047327;28;20476;-81
2022/04/30 12:09:44;;;;;;;737.65;75.18;;;9.70;92.40;;;;;;5040369;28;20428;-81
2022/04/30 12:12:23;;;;;;;244.57;27.95;;;9.70;92.60;;;;;;5032628;28;20447;-80
2022/04/30 12:14:53;;;;;;;744.28;65.03;;;9.90;94.50;;;;;;5049608;28;20388;-80
2022/04/30 12:17:31;;;;;;;251.50;26.00;;;9.90;93.40;;;;;;5033135;28;20432;-80
2022/04/30 12:26:05;;;;;;;258.27;25.92;;;10.30;93.50;;;;;;5050219;28;20398;-80
2022/04/30 12:28:45;;;;;;;579.58;54.40;;;10.30;90.00;;;;;;5050741;28;20411;-80
2022/04/30 12:31:13;;;;;;;144.80;11.18;;;10.30;90.90;;;;;;5056991;28;20804;-81
2022/04/30 12:33:48;;;;;;;120.17;13.83;;;10.30;91.70;;;;;;5039601;28;20398;-80
2022/04/30 12:36:17;;;;;;;47.90;7.30;;;10.20;92.50;;;;;;5032689;28;20433;-80
2022/04/30 12:38:55;;;;;;;314.90;35.10;;;10.50;94.50;;;;;;5049214;28;20385;-81
2022/04/30 12:41:23;;;;;;;87.60;8.30;;;10.70;91.30;;;;;;5033349;28;20390;-81
2022/04/30 12:43:52;;;;;;;154.57;15.67;;;10.50;93.30;;;;;;5040135;28;20389;-80
2022/04/30 12:46:21;;;;;;;282.25;40.58;;;10.30;95.80;;;;;;5048274;28;20387;-81
2022/04/30 12:48:50;;;;;;;749.97;57.38;;;10.30;92.30;;;;;;5035080;28;20844;-80
2022/04/30 12:51:19;;;;;;;1.88;0.70;;;10.30;92.60;;;;;;5052680;28;20396;-80
2022/04/30 12:53:47;;;;;;;57.23;8.67;;;10.10;92.80;;;;;;5052285;28;20407;-82
2022/04/30 12:56:16;;;;;;;234.20;24.20;;;10.10;93.20;;;;;;5051581;28;20887;-81
2022/04/30 12:58:44;;;;;;;236.95;37.60;;;10.10;91.20;;;;;;5052733;28;20422;-84
2022/04/30 13:01:12;;;;;;;1.83;0.68;;;10.30;92.80;;;;;;5051781;28;20454;-82
2022/04/30 13:03:41;;;;;;;64.80;7.03;;;10.20;93.70;;;;;;5052967;28;20410;-83
2022/04/30 13:06:09;;;;;;;168.67;26.00;;;10.50;94.70;;;;;;5051840;28;20396;-82
2022/04/30 13:14:14;;;;;;;226.73;43.97;;;10.60;92.40;;;;;;5038713;28;20490;-83
2022/04/30 13:16:41;;;;;;;278.25;38.97;;;10.90;93.40;;;;;;5041865;28;20395;-83
2022/04/30 13:19:10;;;;;;;271.98;35.22;;;10.90;92.90;;;;;;5048338;28;20385;-83
2022/04/30 13:21:37;;;;;;;117.18;9.93;;;11.00;90.20;;;;;;5036985;28;20791;-83
2022/04/30 13:24:05;;;;;;;213.75;32.30;;;11.10;91.70;;;;;;5032963;28;20875;-83
2022/04/30 13:26:33;;;;;;;237.75;29.90;;;11.10;92.10;;;;;;5029919;28;20400;-83
2022/04/30 13:29:01;;;;;;;226.25;34.90;;;11.10;90.20;;;;;;5047862;28;20452;-82